sensor_id;sensor_type;location;lat;lon;timestamp;P1;durP1;ratioP1;P2;durP2;ratioP2
38226;SDS011;24026;49.446;8.576;2024-01-25T00:01:06;126.70;;;112.88;;
38226;SDS011;24026;49.446;8.576;2024-01-25T00:03:27;127.68;;;113.80;;
38226;SDS011;24026;49.446;8.576;2024-01-25T00:05:47;126.90;;;112.95;;
38226;SDS011;24026;49.446;8.576;2024-01-25T00:08:08;127.82;;;113.88;;
38226;SDS011;24026;49.446;8.576;2024-01-25T00:10:28;127.30;;;113.50;;
38226;SDS011;24026;49.446;8.576;2024-01-25T00:12:49;127.82;;;114.10;;
38226;SDS011;24026;49.446;8.576;2024-01-25T00:15:09;126.45;;;112.65;;
38226;SDS011;24026;49.446;8.576;2024-01-25T00:17:30;126.97;;;113.30;;
38226;SDS011;24026;49.446;8.576;2024-01-25T00:19:50;128.43;;;114.63;;
38226;SDS011;24026;49.446;8.576;2024-01-25T00:22:10;126.20;;;112.50;;
38226;SDS011;24026;49.446;8.576;2024-01-25T00:24:31;127.22;;;113.22;;
38226;SDS011;24026;49.446;8.576;2024-01-25T00:26:53;127.38;;;113.53;;
38226;SDS011;24026;49.446;8.576;2024-01-25T00:29:13;127.90;;;113.97;;
38226;SDS011;24026;49.446;8.576;2024-01-25T00:31:35;128.20;;;114.30;;
38226;SDS011;24026;49.446;8.576;2024-01-25T00:33:56;126.93;;;113.22;;
38226;SDS011;24026;49.446;8.576;2024-01-25T00:36:17;127.38;;;113.38;;
38226;SDS011;24026;49.446;8.576;2024-01-25T00:38:38;127.13;;;113.40;;
38226;SDS011;24026;49.446;8.576;2024-01-25T00:40:59;128.52;;;114.82;;
38226;SDS011;24026;49.446;8.576;2024-01-25T00:43:20;126.22;;;112.53;;
38226;SDS011;24026;49.446;8.576;2024-01-25T00:45:40;128.40;;;114.43;;
38226;SDS011;24026;49.446;8.576;2024-01-25T00:48:01;128.63;;;114.63;;
38226;SDS011;24026;49.446;8.576;2024-01-25T00:50:22;127.35;;;113.38;;
38226;SDS011;24026;49.446;8.576;2024-01-25T00:52:45;127.18;;;113.28;;
38226;SDS011;24026;49.446;8.576;2024-01-25T00:55:07;126.43;;;112.63;;
38226;SDS011;24026;49.446;8.576;2024-01-25T00:57:28;128.25;;;114.50;;
38226;SDS011;24026;49.446;8.576;2024-01-25T00:59:48;126.80;;;113.10;;
38226;SDS011;24026;49.446;8.576;2024-01-25T01:02:10;126.95;;;113.13;;
38226;SDS011;24026;49.446;8.576;2024-01-25T01:04:32;128.57;;;114.60;;
38226;SDS011;24026;49.446;8.576;2024-01-25T01:06:53;132.30;;;113.43;;
38226;SDS011;24026;49.446;8.576;2024-01-25T01:09:13;126.93;;;113.03;;
38226;SDS011;24026;49.446;8.576;2024-01-25T01:11:34;126.43;;;112.78;;
38226;SDS011;24026;49.446;8.576;2024-01-25T01:13:56;127.50;;;113.65;;
38226;SDS011;24026;49.446;8.576;2024-01-25T01:16:16;126.22;;;112.63;;
38226;SDS011;24026;49.446;8.576;2024-01-25T01:18:37;124.90;;;111.20;;
38226;SDS011;24026;49.446;8.576;2024-01-25T01:20:58;125.40;;;111.88;;
38226;SDS011;24026;49.446;8.576;2024-01-25T01:23:18;125.15;;;111.35;;
38226;SDS011;24026;49.446;8.576;2024-01-25T01:25:39;125.60;;;111.95;;
38226;SDS011;24026;49.446;8.576;2024-01-25T01:27:59;126.30;;;112.68;;
38226;SDS011;24026;49.446;8.576;2024-01-25T01:30:20;125.68;;;111.97;;
38226;SDS011;24026;49.446;8.576;2024-01-25T01:32:40;125.75;;;112.03;;
38226;SDS011;24026;49.446;8.576;2024-01-25T01:35:01;123.80;;;110.22;;
38226;SDS011;24026;49.446;8.576;2024-01-25T01:37:21;124.93;;;109.43;;
38226;SDS011;24026;49.446;8.576;2024-01-25T01:39:41;124.68;;;110.90;;
38226;SDS011;24026;49.446;8.576;2024-01-25T01:42:02;125.55;;;111.72;;
38226;SDS011;24026;49.446;8.576;2024-01-25T01:44:23;124.78;;;111.03;;
38226;SDS011;24026;49.446;8.576;2024-01-25T01:46:43;124.40;;;110.68;;
38226;SDS011;24026;49.446;8.576;2024-01-25T01:49:04;126.53;;;112.60;;
38226;SDS011;24026;49.446;8.576;2024-01-25T01:51:24;125.75;;;112.03;;
38226;SDS011;24026;49.446;8.576;2024-01-25T01:53:45;125.65;;;111.95;;
38226;SDS011;24026;49.446;8.576;2024-01-25T01:56:06;124.90;;;111.20;;
38226;SDS011;24026;49.446;8.576;2024-01-25T01:58:27;124.90;;;111.40;;
38226;SDS011;24026;49.446;8.576;2024-01-25T02:00:48;124.15;;;110.15;;
38226;SDS011;24026;49.446;8.576;2024-01-25T02:03:10;124.95;;;111.53;;
38226;SDS011;24026;49.446;8.576;2024-01-25T02:05:30;124.93;;;111.45;;
38226;SDS011;24026;49.446;8.576;2024-01-25T02:07:51;124.78;;;110.72;;
38226;SDS011;24026;49.446;8.576;2024-01-25T02:10:12;125.53;;;111.68;;
38226;SDS011;24026;49.446;8.576;2024-01-25T02:12:33;126.22;;;112.55;;
38226;SDS011;24026;49.446;8.576;2024-01-25T02:14:53;125.70;;;111.97;;
38226;SDS011;24026;49.446;8.576;2024-01-25T02:17:13;125.50;;;111.75;;
38226;SDS011;24026;49.446;8.576;2024-01-25T02:19:34;127.00;;;113.13;;
38226;SDS011;24026;49.446;8.576;2024-01-25T02:21:54;125.43;;;111.93;;
38226;SDS011;24026;49.446;8.576;2024-01-25T02:24:17;124.35;;;110.75;;
38226;SDS011;24026;49.446;8.576;2024-01-25T02:26:37;125.15;;;111.55;;
38226;SDS011;24026;49.446;8.576;2024-01-25T02:28:58;125.57;;;111.80;;
38226;SDS011;24026;49.446;8.576;2024-01-25T02:31:18;125.28;;;111.60;;
38226;SDS011;24026;49.446;8.576;2024-01-25T02:33:39;125.70;;;111.93;;
38226;SDS011;24026;49.446;8.576;2024-01-25T02:35:59;126.50;;;112.55;;
38226;SDS011;24026;49.446;8.576;2024-01-25T02:38:19;124.32;;;110.75;;
38226;SDS011;24026;49.446;8.576;2024-01-25T02:40:40;125.45;;;111.80;;
38226;SDS011;24026;49.446;8.576;2024-01-25T02:43:00;125.07;;;111.28;;
38226;SDS011;24026;49.446;8.576;2024-01-25T02:45:21;124.80;;;111.00;;
38226;SDS011;24026;49.446;8.576;2024-01-25T02:47:41;125.25;;;111.50;;
38226;SDS011;24026;49.446;8.576;2024-01-25T02:50:01;125.57;;;111.82;;
38226;SDS011;24026;49.446;8.576;2024-01-25T02:52:22;125.85;;;112.13;;
38226;SDS011;24026;49.446;8.576;2024-01-25T02:54:42;124.97;;;111.28;;
38226;SDS011;24026;49.446;8.576;2024-01-25T02:57:03;123.90;;;110.38;;
38226;SDS011;24026;49.446;8.576;2024-01-25T02:59:24;127.45;;;111.68;;
38226;SDS011;24026;49.446;8.576;2024-01-25T03:01:44;125.63;;;111.57;;
38226;SDS011;24026;49.446;8.576;2024-01-25T03:04:05;124.25;;;110.65;;
38226;SDS011;24026;49.446;8.576;2024-01-25T03:06:25;124.60;;;110.95;;
38226;SDS011;24026;49.446;8.576;2024-01-25T03:08:46;126.18;;;112.53;;
38226;SDS011;24026;49.446;8.576;2024-01-25T03:11:06;124.75;;;111.00;;
38226;SDS011;24026;49.446;8.576;2024-01-25T03:13:27;124.55;;;110.97;;
38226;SDS011;24026;49.446;8.576;2024-01-25T03:15:47;124.88;;;111.18;;
38226;SDS011;24026;49.446;8.576;2024-01-25T03:18:07;125.03;;;111.63;;
38226;SDS011;24026;49.446;8.576;2024-01-25T03:20:28;124.57;;;110.88;;
38226;SDS011;24026;49.446;8.576;2024-01-25T03:22:48;125.22;;;111.78;;
38226;SDS011;24026;49.446;8.576;2024-01-25T03:25:10;126.85;;;111.15;;
38226;SDS011;24026;49.446;8.576;2024-01-25T03:27:30;125.28;;;111.30;;
38226;SDS011;24026;49.446;8.576;2024-01-25T03:29:51;124.13;;;110.68;;
38226;SDS011;24026;49.446;8.576;2024-01-25T03:32:11;123.38;;;110.00;;
38226;SDS011;24026;49.446;8.576;2024-01-25T03:34:32;126.13;;;112.32;;
38226;SDS011;24026;49.446;8.576;2024-01-25T03:36:52;124.18;;;110.47;;
38226;SDS011;24026;49.446;8.576;2024-01-25T03:39:14;125.70;;;112.18;;
38226;SDS011;24026;49.446;8.576;2024-01-25T03:41:34;125.38;;;111.53;;
38226;SDS011;24026;49.446;8.576;2024-01-25T03:43:55;126.25;;;112.60;;
38226;SDS011;24026;49.446;8.576;2024-01-25T03:46:15;125.68;;;112.07;;
38226;SDS011;24026;49.446;8.576;2024-01-25T03:48:36;126.35;;;112.45;;
38226;SDS011;24026;49.446;8.576;2024-01-25T03:50:56;125.53;;;112.00;;
38226;SDS011;24026;49.446;8.576;2024-01-25T03:53:16;125.70;;;112.05;;
38226;SDS011;24026;49.446;8.576;2024-01-25T03:55:37;126.63;;;112.93;;
38226;SDS011;24026;49.446;8.576;2024-01-25T03:57:57;125.65;;;111.68;;
38226;SDS011;24026;49.446;8.576;2024-01-25T04:00:18;124.15;;;110.63;;
38226;SDS011;24026;49.446;8.576;2024-01-25T04:02:39;124.07;;;110.65;;
38226;SDS011;24026;49.446;8.576;2024-01-25T04:05:00;124.70;;;110.97;;
38226;SDS011;24026;49.446;8.576;2024-01-25T04:07:20;125.72;;;112.10;;
38226;SDS011;24026;49.446;8.576;2024-01-25T04:09:40;125.25;;;111.43;;
38226;SDS011;24026;49.446;8.576;2024-01-25T04:12:01;125.55;;;111.82;;
38226;SDS011;24026;49.446;8.576;2024-01-25T04:14:21;124.90;;;110.95;;
38226;SDS011;24026;49.446;8.576;2024-01-25T04:16:41;124.93;;;111.28;;
38226;SDS011;24026;49.446;8.576;2024-01-25T04:19:02;123.18;;;109.05;;
38226;SDS011;24026;49.446;8.576;2024-01-25T04:21:22;124.75;;;111.13;;
38226;SDS011;24026;49.446;8.576;2024-01-25T04:23:43;124.32;;;110.88;;
38226;SDS011;24026;49.446;8.576;2024-01-25T04:26:03;124.55;;;110.90;;
38226;SDS011;24026;49.446;8.576;2024-01-25T04:28:23;124.05;;;110.53;;
38226;SDS011;24026;49.446;8.576;2024-01-25T04:30:44;126.50;;;112.40;;
38226;SDS011;24026;49.446;8.576;2024-01-25T04:33:04;123.07;;;109.70;;
38226;SDS011;24026;49.446;8.576;2024-01-25T04:35:25;124.00;;;110.35;;
38226;SDS011;24026;49.446;8.576;2024-01-25T04:37:45;125.03;;;110.93;;
38226;SDS011;24026;49.446;8.576;2024-01-25T04:40:06;124.10;;;110.50;;
38226;SDS011;24026;49.446;8.576;2024-01-25T04:42:27;124.43;;;110.85;;
38226;SDS011;24026;49.446;8.576;2024-01-25T04:44:47;124.47;;;110.70;;
38226;SDS011;24026;49.446;8.576;2024-01-25T04:47:08;124.05;;;110.40;;
38226;SDS011;24026;49.446;8.576;2024-01-25T04:49:29;125.80;;;111.47;;
38226;SDS011;24026;49.446;8.576;2024-01-25T04:51:50;124.47;;;110.90;;
38226;SDS011;24026;49.446;8.576;2024-01-25T04:54:10;123.75;;;110.25;;
38226;SDS011;24026;49.446;8.576;2024-01-25T04:56:32;124.88;;;111.13;;
38226;SDS011;24026;49.446;8.576;2024-01-25T04:58:53;122.85;;;109.60;;
38226;SDS011;24026;49.446;8.576;2024-01-25T05:01:13;124.55;;;111.15;;
38226;SDS011;24026;49.446;8.576;2024-01-25T05:03:34;125.55;;;111.85;;
38226;SDS011;24026;49.446;8.576;2024-01-25T05:05:54;124.53;;;111.00;;
38226;SDS011;24026;49.446;8.576;2024-01-25T05:08:14;126.00;;;112.45;;
38226;SDS011;24026;49.446;8.576;2024-01-25T05:10:35;126.53;;;113.22;;
38226;SDS011;24026;49.446;8.576;2024-01-25T05:12:55;126.22;;;112.72;;
38226;SDS011;24026;49.446;8.576;2024-01-25T05:15:16;127.40;;;114.00;;
38226;SDS011;24026;49.446;8.576;2024-01-25T05:17:36;127.07;;;113.65;;
38226;SDS011;24026;49.446;8.576;2024-01-25T05:19:57;128.55;;;114.97;;
38226;SDS011;24026;49.446;8.576;2024-01-25T05:22:17;127.00;;;113.68;;
38226;SDS011;24026;49.446;8.576;2024-01-25T05:24:38;128.40;;;114.90;;
38226;SDS011;24026;49.446;8.576;2024-01-25T05:26:58;129.90;;;116.50;;
38226;SDS011;24026;49.446;8.576;2024-01-25T05:29:18;131.45;;;117.95;;
38226;SDS011;24026;49.446;8.576;2024-01-25T05:31:39;135.48;;;121.55;;
38226;SDS011;24026;49.446;8.576;2024-01-25T05:33:59;134.25;;;120.70;;
38226;SDS011;24026;49.446;8.576;2024-01-25T05:36:19;134.57;;;121.03;;
38226;SDS011;24026;49.446;8.576;2024-01-25T05:38:40;136.70;;;122.70;;
38226;SDS011;24026;49.446;8.576;2024-01-25T05:41:00;135.05;;;121.28;;
38226;SDS011;24026;49.446;8.576;2024-01-25T05:43:21;136.13;;;122.40;;
38226;SDS011;24026;49.446;8.576;2024-01-25T05:45:42;137.23;;;123.25;;
38226;SDS011;24026;49.446;8.576;2024-01-25T05:48:03;136.05;;;122.60;;
38226;SDS011;24026;49.446;8.576;2024-01-25T05:50:24;136.02;;;122.50;;
38226;SDS011;24026;49.446;8.576;2024-01-25T05:52:45;136.15;;;122.50;;
38226;SDS011;24026;49.446;8.576;2024-01-25T05:55:07;137.32;;;123.70;;
38226;SDS011;24026;49.446;8.576;2024-01-25T05:57:29;138.80;;;125.03;;
38226;SDS011;24026;49.446;8.576;2024-01-25T05:59:49;135.98;;;122.38;;
38226;SDS011;24026;49.446;8.576;2024-01-25T06:02:10;136.98;;;123.28;;
38226;SDS011;24026;49.446;8.576;2024-01-25T06:04:30;137.27;;;123.68;;
38226;SDS011;24026;49.446;8.576;2024-01-25T06:06:51;137.90;;;124.22;;
38226;SDS011;24026;49.446;8.576;2024-01-25T06:09:11;137.68;;;123.97;;
38226;SDS011;24026;49.446;8.576;2024-01-25T06:11:32;138.32;;;124.63;;
38226;SDS011;24026;49.446;8.576;2024-01-25T06:13:53;139.95;;;125.97;;
38226;SDS011;24026;49.446;8.576;2024-01-25T06:16:15;138.50;;;124.93;;
38226;SDS011;24026;49.446;8.576;2024-01-25T06:21:21;141.38;;;127.47;;
38226;SDS011;24026;49.446;8.576;2024-01-25T06:23:42;143.27;;;129.25;;
38226;SDS011;24026;49.446;8.576;2024-01-25T06:26:03;142.18;;;128.30;;
38226;SDS011;24026;49.446;8.576;2024-01-25T06:28:24;143.23;;;129.13;;
38226;SDS011;24026;49.446;8.576;2024-01-25T06:30:45;143.38;;;129.25;;
38226;SDS011;24026;49.446;8.576;2024-01-25T06:33:06;144.38;;;129.95;;
38226;SDS011;24026;49.446;8.576;2024-01-25T06:35:27;142.10;;;127.82;;
38226;SDS011;24026;49.446;8.576;2024-01-25T06:37:48;144.77;;;130.50;;
38226;SDS011;24026;49.446;8.576;2024-01-25T06:40:09;144.05;;;129.50;;
38226;SDS011;24026;49.446;8.576;2024-01-25T06:42:29;143.20;;;128.60;;
38226;SDS011;24026;49.446;8.576;2024-01-25T06:44:50;146.00;;;131.63;;
38226;SDS011;24026;49.446;8.576;2024-01-25T06:47:10;149.68;;;133.52;;
38226;SDS011;24026;49.446;8.576;2024-01-25T06:49:31;147.85;;;132.25;;
38226;SDS011;24026;49.446;8.576;2024-01-25T06:51:51;149.07;;;133.55;;
38226;SDS011;24026;49.446;8.576;2024-01-25T06:54:12;147.80;;;132.10;;
38226;SDS011;24026;49.446;8.576;2024-01-25T06:56:33;149.25;;;132.95;;
38226;SDS011;24026;49.446;8.576;2024-01-25T06:58:55;151.55;;;133.38;;
38226;SDS011;24026;49.446;8.576;2024-01-25T07:01:20;147.52;;;131.75;;
38226;SDS011;24026;49.446;8.576;2024-01-25T07:03:42;148.52;;;132.73;;
38226;SDS011;24026;49.446;8.576;2024-01-25T07:06:04;150.27;;;133.23;;
38226;SDS011;24026;49.446;8.576;2024-01-25T07:08:27;154.95;;;137.70;;
38226;SDS011;24026;49.446;8.576;2024-01-25T07:10:47;153.98;;;137.40;;
38226;SDS011;24026;49.446;8.576;2024-01-25T07:13:08;160.50;;;138.73;;
38226;SDS011;24026;49.446;8.576;2024-01-25T07:15:29;155.77;;;138.90;;
38226;SDS011;24026;49.446;8.576;2024-01-25T07:17:50;158.63;;;141.40;;
38226;SDS011;24026;49.446;8.576;2024-01-25T07:20:10;160.18;;;143.02;;
38226;SDS011;24026;49.446;8.576;2024-01-25T07:22:31;162.75;;;145.48;;
38226;SDS011;24026;49.446;8.576;2024-01-25T07:24:53;165.90;;;148.52;;
38226;SDS011;24026;49.446;8.576;2024-01-25T07:27:14;167.93;;;149.85;;
38226;SDS011;24026;49.446;8.576;2024-01-25T07:29:35;167.52;;;149.48;;
38226;SDS011;24026;49.446;8.576;2024-01-25T07:31:56;170.80;;;152.98;;
38226;SDS011;24026;49.446;8.576;2024-01-25T07:34:16;168.27;;;149.75;;
38226;SDS011;24026;49.446;8.576;2024-01-25T07:36:36;169.55;;;151.90;;
38226;SDS011;24026;49.446;8.576;2024-01-25T07:38:57;170.48;;;151.88;;
38226;SDS011;24026;49.446;8.576;2024-01-25T07:41:17;168.20;;;150.40;;
38226;SDS011;24026;49.446;8.576;2024-01-25T07:43:38;170.40;;;148.80;;
38226;SDS011;24026;49.446;8.576;2024-01-25T07:45:58;168.48;;;150.57;;
38226;SDS011;24026;49.446;8.576;2024-01-25T07:48:18;168.15;;;150.20;;
38226;SDS011;24026;49.446;8.576;2024-01-25T07:50:39;164.75;;;147.15;;
38226;SDS011;24026;49.446;8.576;2024-01-25T07:53:03;169.32;;;149.75;;
38226;SDS011;24026;49.446;8.576;2024-01-25T07:55:23;166.85;;;148.73;;
38226;SDS011;24026;49.446;8.576;2024-01-25T07:57:43;168.30;;;147.73;;
38226;SDS011;24026;49.446;8.576;2024-01-25T08:03:21;166.20;;;148.38;;
38226;SDS011;24026;49.446;8.576;2024-01-25T08:05:42;165.50;;;146.88;;
38226;SDS011;24026;49.446;8.576;2024-01-25T08:08:04;164.45;;;146.45;;
38226;SDS011;24026;49.446;8.576;2024-01-25T08:10:25;164.77;;;147.15;;
38226;SDS011;24026;49.446;8.576;2024-01-25T08:12:45;164.90;;;147.15;;
38226;SDS011;24026;49.446;8.576;2024-01-25T08:15:09;166.85;;;148.82;;
38226;SDS011;24026;49.446;8.576;2024-01-25T08:17:31;170.80;;;152.07;;
38226;SDS011;24026;49.446;8.576;2024-01-25T08:19:52;176.43;;;154.68;;
38226;SDS011;24026;49.446;8.576;2024-01-25T08:22:13;173.43;;;154.45;;
38226;SDS011;24026;49.446;8.576;2024-01-25T08:24:34;172.90;;;154.00;;
38226;SDS011;24026;49.446;8.576;2024-01-25T08:26:54;173.93;;;154.85;;
38226;SDS011;24026;49.446;8.576;2024-01-25T08:29:16;177.05;;;155.77;;
38226;SDS011;24026;49.446;8.576;2024-01-25T08:31:36;173.07;;;154.48;;
38226;SDS011;24026;49.446;8.576;2024-01-25T08:33:57;170.65;;;152.05;;
38226;SDS011;24026;49.446;8.576;2024-01-25T08:36:17;173.80;;;155.32;;
38226;SDS011;24026;49.446;8.576;2024-01-25T08:38:38;172.98;;;154.05;;
38226;SDS011;24026;49.446;8.576;2024-01-25T08:40:58;173.60;;;153.50;;
38226;SDS011;24026;49.446;8.576;2024-01-25T08:43:19;172.57;;;153.75;;
38226;SDS011;24026;49.446;8.576;2024-01-25T08:45:39;172.23;;;153.43;;
38226;SDS011;24026;49.446;8.576;2024-01-25T08:47:59;172.65;;;154.02;;
38226;SDS011;24026;49.446;8.576;2024-01-25T08:50:20;175.15;;;156.70;;
38226;SDS011;24026;49.446;8.576;2024-01-25T08:52:40;173.43;;;155.10;;
38226;SDS011;24026;49.446;8.576;2024-01-25T08:55:01;174.77;;;156.73;;
38226;SDS011;24026;49.446;8.576;2024-01-25T08:57:23;176.25;;;157.15;;
38226;SDS011;24026;49.446;8.576;2024-01-25T08:59:43;179.48;;;160.65;;
38226;SDS011;24026;49.446;8.576;2024-01-25T09:02:04;178.70;;;160.00;;
38226;SDS011;24026;49.446;8.576;2024-01-25T09:04:25;175.23;;;157.18;;
38226;SDS011;24026;49.446;8.576;2024-01-25T09:06:46;177.10;;;158.90;;
38226;SDS011;24026;49.446;8.576;2024-01-25T09:09:06;178.02;;;159.82;;
38226;SDS011;24026;49.446;8.576;2024-01-25T09:11:28;178.52;;;159.48;;
38226;SDS011;24026;49.446;8.576;2024-01-25T09:13:48;186.88;;;159.55;;
38226;SDS011;24026;49.446;8.576;2024-01-25T09:16:09;178.35;;;159.85;;
38226;SDS011;24026;49.446;8.576;2024-01-25T09:18:29;178.55;;;160.05;;
38226;SDS011;24026;49.446;8.576;2024-01-25T09:20:49;177.35;;;158.80;;
38226;SDS011;24026;49.446;8.576;2024-01-25T09:23:10;179.20;;;160.13;;
38226;SDS011;24026;49.446;8.576;2024-01-25T09:25:30;176.55;;;157.70;;
38226;SDS011;24026;49.446;8.576;2024-01-25T09:27:51;179.88;;;161.55;;
38226;SDS011;24026;49.446;8.576;2024-01-25T09:30:11;175.55;;;157.55;;
38226;SDS011;24026;49.446;8.576;2024-01-25T09:32:32;176.40;;;157.75;;
38226;SDS011;24026;49.446;8.576;2024-01-25T09:34:52;174.93;;;156.15;;
38226;SDS011;24026;49.446;8.576;2024-01-25T09:37:14;175.15;;;156.70;;
38226;SDS011;24026;49.446;8.576;2024-01-25T09:39:35;175.23;;;156.43;;
38226;SDS011;24026;49.446;8.576;2024-01-25T09:41:55;177.45;;;158.93;;
38226;SDS011;24026;49.446;8.576;2024-01-25T09:44:15;175.02;;;156.77;;
38226;SDS011;24026;49.446;8.576;2024-01-25T09:46:39;172.82;;;154.45;;
38226;SDS011;24026;49.446;8.576;2024-01-25T09:49:01;172.85;;;154.88;;
38226;SDS011;24026;49.446;8.576;2024-01-25T09:51:23;174.50;;;156.27;;
38226;SDS011;24026;49.446;8.576;2024-01-25T09:53:45;175.80;;;157.38;;
38226;SDS011;24026;49.446;8.576;2024-01-25T09:56:09;175.27;;;156.20;;
38226;SDS011;24026;49.446;8.576;2024-01-25T09:58:37;175.48;;;157.18;;
38226;SDS011;24026;49.446;8.576;2024-01-25T10:00:59;177.00;;;157.75;;
38226;SDS011;24026;49.446;8.576;2024-01-25T10:03:20;173.32;;;154.93;;
38226;SDS011;24026;49.446;8.576;2024-01-25T10:05:40;172.15;;;153.98;;
38226;SDS011;24026;49.446;8.576;2024-01-25T10:08:01;172.70;;;154.25;;
38226;SDS011;24026;49.446;8.576;2024-01-25T10:10:21;173.95;;;155.45;;
38226;SDS011;24026;49.446;8.576;2024-01-25T10:12:42;170.27;;;152.60;;
38226;SDS011;24026;49.446;8.576;2024-01-25T10:15:04;170.18;;;152.52;;
38226;SDS011;24026;49.446;8.576;2024-01-25T10:17:25;168.02;;;150.43;;
38226;SDS011;24026;49.446;8.576;2024-01-25T10:19:48;168.57;;;150.63;;
38226;SDS011;24026;49.446;8.576;2024-01-25T10:22:10;169.43;;;151.63;;
38226;SDS011;24026;49.446;8.576;2024-01-25T10:24:32;167.90;;;150.15;;
38226;SDS011;24026;49.446;8.576;2024-01-25T10:26:53;166.73;;;148.77;;
38226;SDS011;24026;49.446;8.576;2024-01-25T10:29:14;167.43;;;149.45;;
38226;SDS011;24026;49.446;8.576;2024-01-25T10:31:36;168.65;;;151.20;;
38226;SDS011;24026;49.446;8.576;2024-01-25T10:33:59;168.93;;;151.30;;
38226;SDS011;24026;49.446;8.576;2024-01-25T10:36:22;169.70;;;151.52;;
38226;SDS011;24026;49.446;8.576;2024-01-25T10:38:43;168.27;;;150.48;;
38226;SDS011;24026;49.446;8.576;2024-01-25T10:41:05;168.60;;;150.98;;
38226;SDS011;24026;49.446;8.576;2024-01-25T10:43:25;169.35;;;152.02;;
38226;SDS011;24026;49.446;8.576;2024-01-25T10:45:46;168.05;;;150.15;;
38226;SDS011;24026;49.446;8.576;2024-01-25T10:48:07;167.82;;;149.68;;
38226;SDS011;24026;49.446;8.576;2024-01-25T10:50:27;165.55;;;148.30;;
38226;SDS011;24026;49.446;8.576;2024-01-25T10:52:48;165.30;;;148.18;;
38226;SDS011;24026;49.446;8.576;2024-01-25T10:55:09;168.35;;;150.65;;
38226;SDS011;24026;49.446;8.576;2024-01-25T10:57:37;164.70;;;147.43;;
38226;SDS011;24026;49.446;8.576;2024-01-25T10:59:59;168.27;;;150.27;;
38226;SDS011;24026;49.446;8.576;2024-01-25T11:02:21;166.77;;;149.30;;
38226;SDS011;24026;49.446;8.576;2024-01-25T11:04:41;165.98;;;148.77;;
38226;SDS011;24026;49.446;8.576;2024-01-25T11:07:13;165.57;;;148.10;;
38226;SDS011;24026;49.446;8.576;2024-01-25T11:09:33;165.35;;;148.32;;
38226;SDS011;24026;49.446;8.576;2024-01-25T11:11:55;167.63;;;149.93;;
38226;SDS011;24026;49.446;8.576;2024-01-25T11:14:19;168.30;;;150.60;;
38226;SDS011;24026;49.446;8.576;2024-01-25T11:16:39;165.45;;;147.95;;
38226;SDS011;24026;49.446;8.576;2024-01-25T11:19:04;165.13;;;147.57;;
38226;SDS011;24026;49.446;8.576;2024-01-25T11:21:28;164.68;;;147.48;;
38226;SDS011;24026;49.446;8.576;2024-01-25T11:23:58;163.45;;;146.10;;
38226;SDS011;24026;49.446;8.576;2024-01-25T11:26:24;164.40;;;147.35;;
38226;SDS011;24026;49.446;8.576;2024-01-25T11:28:45;163.02;;;145.77;;
38226;SDS011;24026;49.446;8.576;2024-01-25T11:31:05;165.15;;;147.85;;
38226;SDS011;24026;49.446;8.576;2024-01-25T11:33:27;166.23;;;149.15;;
38226;SDS011;24026;49.446;8.576;2024-01-25T11:35:54;164.35;;;147.30;;
38226;SDS011;24026;49.446;8.576;2024-01-25T11:38:15;161.82;;;145.05;;
38226;SDS011;24026;49.446;8.576;2024-01-25T11:40:35;162.80;;;146.00;;
38226;SDS011;24026;49.446;8.576;2024-01-25T11:43:16;162.98;;;146.30;;
38226;SDS011;24026;49.446;8.576;2024-01-25T11:45:37;164.65;;;147.38;;
38226;SDS011;24026;49.446;8.576;2024-01-25T11:48:02;163.68;;;146.68;;
38226;SDS011;24026;49.446;8.576;2024-01-25T11:50:23;164.10;;;146.65;;
38226;SDS011;24026;49.446;8.576;2024-01-25T11:52:43;165.73;;;148.63;;
38226;SDS011;24026;49.446;8.576;2024-01-25T11:57:26;170.30;;;152.35;;
38226;SDS011;24026;49.446;8.576;2024-01-25T11:59:46;171.30;;;153.40;;
38226;SDS011;24026;49.446;8.576;2024-01-25T12:02:08;166.77;;;149.50;;
38226;SDS011;24026;49.446;8.576;2024-01-25T12:04:29;166.25;;;148.95;;
38226;SDS011;24026;49.446;8.576;2024-01-25T12:06:49;171.45;;;153.57;;
38226;SDS011;24026;49.446;8.576;2024-01-25T12:09:10;174.75;;;156.65;;
38226;SDS011;24026;49.446;8.576;2024-01-25T12:11:31;172.25;;;154.45;;
38226;SDS011;24026;49.446;8.576;2024-01-25T12:13:52;173.13;;;155.00;;
38226;SDS011;24026;49.446;8.576;2024-01-25T12:16:12;174.43;;;156.02;;
38226;SDS011;24026;49.446;8.576;2024-01-25T12:18:33;172.35;;;154.52;;
38226;SDS011;24026;49.446;8.576;2024-01-25T12:20:57;167.30;;;149.77;;
38226;SDS011;24026;49.446;8.576;2024-01-25T12:23:19;169.52;;;151.85;;
38226;SDS011;24026;49.446;8.576;2024-01-25T12:25:41;169.23;;;151.85;;
38226;SDS011;24026;49.446;8.576;2024-01-25T12:28:01;168.80;;;151.27;;
38226;SDS011;24026;49.446;8.576;2024-01-25T12:30:22;167.55;;;149.93;;
38226;SDS011;24026;49.446;8.576;2024-01-25T12:32:42;167.68;;;149.80;;
38226;SDS011;24026;49.446;8.576;2024-01-25T12:35:04;165.35;;;148.02;;
38226;SDS011;24026;49.446;8.576;2024-01-25T12:37:25;166.93;;;148.85;;
38226;SDS011;24026;49.446;8.576;2024-01-25T12:39:47;167.35;;;149.05;;
38226;SDS011;24026;49.446;8.576;2024-01-25T12:42:08;168.05;;;149.95;;
38226;SDS011;24026;49.446;8.576;2024-01-25T12:44:29;167.10;;;149.40;;
38226;SDS011;24026;49.446;8.576;2024-01-25T12:46:49;168.85;;;151.18;;
38226;SDS011;24026;49.446;8.576;2024-01-25T12:49:10;166.75;;;148.82;;
38226;SDS011;24026;49.446;8.576;2024-01-25T12:51:30;167.90;;;149.52;;
38226;SDS011;24026;49.446;8.576;2024-01-25T12:53:50;166.40;;;148.63;;
38226;SDS011;24026;49.446;8.576;2024-01-25T12:56:11;173.68;;;150.50;;
38226;SDS011;24026;49.446;8.576;2024-01-25T12:58:32;165.55;;;147.73;;
38226;SDS011;24026;49.446;8.576;2024-01-25T13:00:53;167.38;;;149.45;;
38226;SDS011;24026;49.446;8.576;2024-01-25T13:03:14;168.00;;;149.77;;
38226;SDS011;24026;49.446;8.576;2024-01-25T13:05:34;167.10;;;149.18;;
38226;SDS011;24026;49.446;8.576;2024-01-25T13:07:55;166.50;;;148.35;;
38226;SDS011;24026;49.446;8.576;2024-01-25T13:10:15;168.13;;;150.02;;
38226;SDS011;24026;49.446;8.576;2024-01-25T13:12:36;164.73;;;147.05;;
38226;SDS011;24026;49.446;8.576;2024-01-25T13:14:57;170.32;;;150.25;;
38226;SDS011;24026;49.446;8.576;2024-01-25T13:17:18;167.23;;;148.95;;
38226;SDS011;24026;49.446;8.576;2024-01-25T13:19:41;164.15;;;146.55;;
38226;SDS011;24026;49.446;8.576;2024-01-25T13:22:01;166.02;;;147.75;;
38226;SDS011;24026;49.446;8.576;2024-01-25T13:24:22;165.23;;;147.35;;
38226;SDS011;24026;49.446;8.576;2024-01-25T13:26:42;167.93;;;149.45;;
38226;SDS011;24026;49.446;8.576;2024-01-25T13:29:03;169.20;;;150.57;;